Time;durP1;ratioP1;P1;durP2;ratioP2;P2;SDS_P1;SDS_P2;PMS_P1;PMS_P2;Temp;Humidity;BMP_temperature;BMP_pressure;BME280_temperature;BME280_humidity;BME280_pressure;Samples;Min_cycle;Max_cycle;Signal;HPM_P1;HPM_P2
2021/12/12 00:01:38;;;;;;;;;11.50;11.50;;;;;;;;5095433;27;48696;-77
2021/12/12 00:04:13;;;;;;;;;10.25;10.25;;;;;;;;5114269;27;45388;-78
2021/12/12 00:06:42;;;;;;;;;11.00;10.00;;;;;;;;5106285;27;45124;-75
2021/12/12 00:09:27;;;;;;;;;11.00;9.75;;;;;;;;5114407;27;45581;-78
2021/12/12 00:11:52;;;;;;;;;9.50;8.75;;;;;;;;5104246;27;45998;-78
2021/12/12 00:14:22;;;;;;;;;10.00;10.00;;;;;;;;5092548;27;46452;-77
2021/12/12 00:16:47;;;;;;;;;11.25;11.25;;;;;;;;5109173;27;45340;-76
2021/12/12 00:19:13;;;;;;;;;11.25;6.50;;;;;;;;5103112;27;45384;-77
2021/12/12 00:21:40;;;;;;;;;3.00;3.00;;;;;;;;5100393;27;45653;-77
2021/12/12 00:24:06;;;;;;;;;10.25;9.50;;;;;;;;5103249;27;45513;-78
2021/12/12 00:26:32;;;;;;;;;9.75;7.50;;;;;;;;5103573;27;45446;-77
2021/12/12 00:28:57;;;;;;;;;13.75;11.25;;;;;;;;5087784;27;45823;-77
2021/12/12 00:31:23;;;;;;;;;15.75;12.25;;;;;;;;5094426;27;47044;-76
2021/12/12 00:33:50;;;;;;;;;11.00;9.00;;;;;;;;5081035;27;46448;-77
2021/12/12 00:36:18;;;;;;;;;10.00;9.00;;;;;;;;5084532;27;45271;-77
2021/12/12 00:38:53;;;;;;;;;16.50;13.25;;;;;;;;5098880;27;45538;-77
2021/12/12 00:41:24;;;;;;;;;13.00;11.00;;;;;;;;5107100;27;46135;-77
2021/12/12 00:43:51;;;;;;;;;16.00;12.50;;;;;;;;5103504;27;45318;-75
2021/12/12 00:46:17;;;;;;;;;14.25;9.50;;;;;;;;5101293;27;45861;-73
2021/12/12 00:48:44;;;;;;;;;13.25;11.75;;;;;;;;5094392;27;45628;-76
2021/12/12 00:51:11;;;;;;;;;15.25;13.25;;;;;;;;5118072;27;45398;-78
2021/12/12 00:53:38;;;;;;;;;13.00;8.00;;;;;;;;5104341;27;45390;-77
2021/12/12 00:56:04;;;;;;;;;12.00;11.50;;;;;;;;5085050;27;45334;-77
2021/12/12 00:58:29;;;;;;;;;14.50;11.00;;;;;;;;5082659;27;45444;-75
2021/12/12 01:01:02;;;;;;;;;5.00;4.00;;;;;;;;5096021;27;47438;-76
2021/12/12 01:03:30;;;;;;;;;11.75;9.50;;;;;;;;5117086;27;45479;-75
2021/12/12 01:05:56;;;;;;;;;13.50;13.50;;;;;;;;5084006;27;45329;-76
2021/12/12 01:08:22;;;;;;;;;11.00;11.00;;;;;;;;5084875;27;45552;-76
2021/12/12 01:10:59;;;;;;;;;13.75;10.75;;;;;;;;5084334;27;47428;-74
2021/12/12 01:13:24;;;;;;;;;10.25;9.00;;;;;;;;5080334;27;45436;-73
2021/12/12 01:15:55;;;;;;;;;8.75;8.75;;;;;;;;5106522;27;45515;-75
2021/12/12 01:18:28;;;;;;;;;10.75;10.25;;;;;;;;5114340;27;45481;-75
2021/12/12 01:20:56;;;;;;;;;11.75;9.50;;;;;;;;5093871;27;47458;-76
2021/12/12 01:23:24;;;;;;;;;11.00;9.75;;;;;;;;5107638;27;45507;-76
2021/12/12 01:25:49;;;;;;;;;9.75;8.75;;;;;;;;5102546;27;45336;-76
2021/12/12 01:28:21;;;;;;;;;8.75;7.00;;;;;;;;5083189;27;45440;-74
2021/12/12 01:30:47;;;;;;;;;10.25;8.50;;;;;;;;5105043;27;45420;-75
2021/12/12 01:33:21;;;;;;;;;8.00;8.00;;;;;;;;5105644;27;45534;-75
2021/12/12 01:35:47;;;;;;;;;8.75;8.75;;;;;;;;5084312;27;45353;-75
2021/12/12 01:40:57;;;;;;;;;8.00;8.00;;;;;;;;5111863;27;45574;-77
2021/12/12 01:43:34;;;;;;;;;6.00;6.00;;;;;;;;5107392;27;45721;-76
2021/12/12 01:46:02;;;;;;;;;5.00;5.00;;;;;;;;5083131;27;45372;-77
2021/12/12 01:48:31;;;;;;;;;8.00;6.25;;;;;;;;5084285;27;45312;-76
2021/12/12 01:51:00;;;;;;;;;8.75;4.50;;;;;;;;5100843;27;46053;-77
2021/12/12 01:53:27;;;;;;;;;6.25;4.75;;;;;;;;5107179;27;45511;-77
2021/12/12 01:55:55;;;;;;;;;4.50;4.50;;;;;;;;5109040;27;45351;-76
2021/12/12 01:58:23;;;;;;;;;5.50;4.25;;;;;;;;5081569;27;45488;-74
2021/12/12 02:00:52;;;;;;;;;7.00;6.00;;;;;;;;5113439;27;45304;-76
2021/12/12 02:03:19;;;;;;;;;4.00;4.00;;;;;;;;5089225;27;46083;-76
2021/12/12 02:05:45;;;;;;;;;4.00;4.00;;;;;;;;5092180;27;45555;-77
2021/12/12 02:08:13;;;;;;;;;9.00;8.75;;;;;;;;5105455;27;45428;-77
2021/12/12 02:10:43;;;;;;;;;4.00;3.75;;;;;;;;5100723;27;45907;-77
2021/12/12 02:13:09;;;;;;;;;5.00;4.00;;;;;;;;5099863;27;45276;-75
2021/12/12 02:15:37;;;;;;;;;4.00;4.00;;;;;;;;5079544;27;45248;-76
2021/12/12 02:18:09;;;;;;;;;6.25;5.50;;;;;;;;5103424;27;45828;-77
2021/12/12 02:20:42;;;;;;;;;6.75;5.75;;;;;;;;5100827;27;46582;-76
2021/12/12 02:36:41;;;;;;;;;5.00;4.00;;;;;;;;5113326;27;45403;-76
2021/12/12 02:39:08;;;;;;;;;4.50;3.00;;;;;;;;5115177;27;45381;-76
2021/12/12 02:41:34;;;;;;;;;4.75;4.75;;;;;;;;5106904;27;48173;-75
2021/12/12 02:44:01;;;;;;;;;5.00;4.00;;;;;;;;5109265;27;45521;-76
2021/12/12 02:46:32;;;;;;;;;4.00;4.00;;;;;;;;5103482;27;45510;-76
2021/12/12 02:49:05;;;;;;;;;7.75;4.25;;;;;;;;5080596;27;45594;-75
2021/12/12 02:51:31;;;;;;;;;5.00;5.00;;;;;;;;5081370;27;49430;-76
2021/12/12 02:53:57;;;;;;;;;4.00;4.00;;;;;;;;5110625;27;45412;-75
2021/12/12 02:56:25;;;;;;;;;4.50;4.50;;;;;;;;5099498;27;45377;-75
2021/12/12 02:58:51;;;;;;;;;6.00;4.75;;;;;;;;5108775;27;45508;-75
2021/12/12 03:01:16;;;;;;;;;4.00;4.00;;;;;;;;5112082;27;45856;-74
2021/12/12 03:03:42;;;;;;;;;5.75;4.00;;;;;;;;5078579;27;45653;-75
2021/12/12 03:06:09;;;;;;;;;3.00;3.00;;;;;;;;5106892;27;45365;-75
2021/12/12 03:08:36;;;;;;;;;5.00;5.00;;;;;;;;5080671;27;45424;-75
2021/12/12 03:11:03;;;;;;;;;2.50;2.50;;;;;;;;5089794;27;47418;-75
2021/12/12 03:13:28;;;;;;;;;3.50;3.50;;;;;;;;5100221;27;45936;-73
2021/12/12 03:15:53;;;;;;;;;6.00;5.00;;;;;;;;5104719;27;45588;-75
2021/12/12 03:18:45;;;;;;;;;8.75;6.25;;;;;;;;5108376;27;45395;-75
2021/12/12 03:21:20;;;;;;;;;5.00;4.00;;;;;;;;5100149;27;46551;-75
2021/12/12 03:23:52;;;;;;;;;5.00;5.00;;;;;;;;5084412;27;45618;-75
2021/12/12 03:26:18;;;;;;;;;6.75;5.50;;;;;;;;5101552;27;45588;-75
2021/12/12 03:28:46;;;;;;;;;4.75;4.75;;;;;;;;5085147;27;45437;-75
2021/12/12 03:31:13;;;;;;;;;3.50;3.50;;;;;;;;5089966;27;48515;-75
2021/12/12 03:33:38;;;;;;;;;3.75;3.00;;;;;;;;5112549;27;45328;-76
2021/12/12 03:36:05;;;;;;;;;3.00;3.00;;;;;;;;5114062;27;45482;-75
2021/12/12 03:38:31;;;;;;;;;4.50;4.50;;;;;;;;5108372;27;45468;-75
2021/12/12 03:40:57;;;;;;;;;4.00;4.00;;;;;;;;5096455;27;47423;-76
2021/12/12 03:43:22;;;;;;;;;8.00;5.00;;;;;;;;5114727;27;45491;-75
2021/12/12 03:45:48;;;;;;;;;6.00;6.00;;;;;;;;5094892;27;45421;-75
2021/12/12 03:48:16;;;;;;;;;4.50;4.50;;;;;;;;5118761;27;45372;-75
2021/12/12 03:50:43;;;;;;;;;7.25;7.25;;;;;;;;5112234;27;46359;-75
2021/12/12 03:53:09;;;;;;;;;6.50;6.50;;;;;;;;5097670;27;46231;-76
2021/12/12 03:55:35;;;;;;;;;9.25;9.00;;;;;;;;5113468;27;45269;-76
2021/12/12 03:58:04;;;;;;;;;9.25;8.00;;;;;;;;5112976;27;45422;-75
2021/12/12 04:00:42;;;;;;;;;5.75;5.75;;;;;;;;5117562;27;46488;-75
2021/12/12 04:03:08;;;;;;;;;7.00;6.00;;;;;;;;5113333;27;45296;-75
2021/12/12 04:05:33;;;;;;;;;6.75;6.75;;;;;;;;5115431;27;46168;-75
2021/12/12 04:07:58;;;;;;;;;9.00;6.25;;;;;;;;5110484;27;45581;-74
2021/12/12 04:10:24;;;;;;;;;9.50;8.25;;;;;;;;5114949;27;45533;-75
2021/12/12 04:12:51;;;;;;;;;7.25;6.50;;;;;;;;5115177;27;44876;-74
2021/12/12 04:15:17;;;;;;;;;10.75;7.50;;;;;;;;5095959;27;45472;-75
2021/12/12 04:17:42;;;;;;;;;8.75;7.25;;;;;;;;5114260;27;45371;-74
2021/12/12 04:20:15;;;;;;;;;10.00;10.00;;;;;;;;5110373;27;45415;-76
2021/12/12 04:22:41;;;;;;;;;7.00;7.00;;;;;;;;5114400;27;45433;-76
2021/12/12 04:25:07;;;;;;;;;9.50;9.00;;;;;;;;5113397;27;45614;-75
2021/12/12 04:27:32;;;;;;;;;6.75;6.75;;;;;;;;5112127;27;45994;-75
2021/12/12 04:30:00;;;;;;;;;5.75;5.75;;;;;;;;5096770;27;47447;-75
2021/12/12 04:32:27;;;;;;;;;10.25;9.25;;;;;;;;5091647;27;45527;-74
2021/12/12 04:34:54;;;;;;;;;10.25;10.25;;;;;;;;5113660;27;45495;-74
2021/12/12 04:37:21;;;;;;;;;11.00;9.75;;;;;;;;5092631;27;45642;-75
2021/12/12 04:39:49;;;;;;;;;10.00;8.50;;;;;;;;5114766;27;46502;-75
2021/12/12 04:42:19;;;;;;;;;9.50;9.00;;;;;;;;5117727;27;45256;-74
2021/12/12 04:44:48;;;;;;;;;9.25;9.25;;;;;;;;5111647;27;45399;-75
2021/12/12 04:50:16;;;;;;;;;12.75;11.25;;;;;;;;5110863;27;45250;-74
2021/12/12 04:52:41;;;;;;;;;10.75;9.75;;;;;;;;5092961;27;46572;-74
2021/12/12 04:55:14;;;;;;;;;9.25;9.25;;;;;;;;5113740;27;45387;-74
2021/12/12 04:57:44;;;;;;;;;12.00;10.00;;;;;;;;5114498;27;45435;-74
2021/12/12 05:00:12;;;;;;;;;13.00;11.50;;;;;;;;5113338;27;45649;-74
2021/12/12 05:02:44;;;;;;;;;10.25;10.25;;;;;;;;5111013;27;45372;-74
2021/12/12 05:05:23;;;;;;;;;13.75;11.25;;;;;;;;5092870;27;45468;-74
2021/12/12 05:07:48;;;;;;;;;12.25;12.00;;;;;;;;5111491;27;45324;-74
2021/12/12 05:10:17;;;;;;;;;11.25;11.25;;;;;;;;5112416;27;46305;-74
2021/12/12 05:13:05;;;;;;;;;9.00;9.00;;;;;;;;5096412;27;45364;-74
2021/12/12 05:15:37;;;;;;;;;10.25;10.00;;;;;;;;5111472;27;45373;-74
2021/12/12 05:18:05;;;;;;;;;11.75;10.75;;;;;;;;5108334;27;45440;-74
2021/12/12 05:20:39;;;;;;;;;15.50;11.75;;;;;;;;5110089;27;45824;-73
2021/12/12 05:23:10;;;;;;;;;15.00;13.25;;;;;;;;5091130;27;45471;-73
2021/12/12 05:25:39;;;;;;;;;10.50;10.50;;;;;;;;5109941;27;45380;-74
2021/12/12 05:28:06;;;;;;;;;11.50;11.50;;;;;;;;5113147;27;45376;-74
2021/12/12 05:30:32;;;;;;;;;18.00;14.25;;;;;;;;5107166;27;45860;-74
2021/12/12 05:32:59;;;;;;;;;15.50;13.50;;;;;;;;5093321;27;45370;-73
2021/12/12 05:35:27;;;;;;;;;15.75;14.50;;;;;;;;5110094;27;45303;-74
2021/12/12 05:37:54;;;;;;;;;14.75;13.75;;;;;;;;5085222;27;45293;-74
2021/12/12 05:40:20;;;;;;;;;16.75;15.25;;;;;;;;5091252;27;48692;-73
2021/12/12 05:42:47;;;;;;;;;16.25;15.25;;;;;;;;5112756;27;45342;-74
2021/12/12 05:45:14;;;;;;;;;19.00;11.50;;;;;;;;5081089;27;45978;-74
2021/12/12 05:47:39;;;;;;;;;13.00;13.00;;;;;;;;5111980;27;45306;-74
2021/12/12 05:50:06;;;;;;;;;10.75;10.75;;;;;;;;5108066;27;46613;-73
2021/12/12 05:52:31;;;;;;;;;13.75;12.25;;;;;;;;5096411;27;45245;-74
2021/12/12 05:54:57;;;;;;;;;14.50;14.00;;;;;;;;5111888;27;47713;-73
2021/12/12 05:57:26;;;;;;;;;13.00;11.75;;;;;;;;5113003;27;45446;-73
2021/12/12 05:59:53;;;;;;;;;12.00;10.00;;;;;;;;5111637;27;45983;-74
2021/12/12 06:02:18;;;;;;;;;16.00;11.50;;;;;;;;5090646;27;46172;-76
2021/12/12 06:04:44;;;;;;;;;14.50;12.75;;;;;;;;5110780;27;45407;-75
2021/12/12 06:07:13;;;;;;;;;13.50;13.50;;;;;;;;5112333;27;45597;-74
2021/12/12 06:09:38;;;;;;;;;15.00;14.00;;;;;;;;5113797;27;45768;-74
2021/12/12 06:12:05;;;;;;;;;14.00;11.25;;;;;;;;5094156;27;45425;-74
2021/12/12 06:14:31;;;;;;;;;11.25;10.75;;;;;;;;5110293;27;45786;-74
2021/12/12 06:16:59;;;;;;;;;10.75;10.75;;;;;;;;5109837;27;45408;-73
2021/12/12 06:19:24;;;;;;;;;13.25;11.00;;;;;;;;5110426;27;45873;-73
2021/12/12 06:21:55;;;;;;;;;13.50;13.50;;;;;;;;5115161;27;47855;-74
2021/12/12 06:24:21;;;;;;;;;8.75;8.25;;;;;;;;5094283;27;45462;-73
2021/12/12 06:26:46;;;;;;;;;9.25;8.00;;;;;;;;5083181;27;45668;-74
2021/12/12 06:29:11;;;;;;;;;13.50;13.50;;;;;;;;5101421;27;45617;-74
2021/12/12 06:31:38;;;;;;;;;12.75;12.75;;;;;;;;5101661;27;45328;-74
2021/12/12 06:34:04;;;;;;;;;11.00;10.00;;;;;;;;5098977;27;45361;-73
2021/12/12 06:36:31;;;;;;;;;11.75;11.75;;;;;;;;5102473;27;45407;-73
2021/12/12 06:38:56;;;;;;;;;13.50;12.75;;;;;;;;5081694;27;48668;-73
2021/12/12 06:41:21;;;;;;;;;13.50;12.00;;;;;;;;5103629;27;45531;-73
2021/12/12 06:43:48;;;;;;;;;13.25;13.00;;;;;;;;5109545;27;45432;-73
2021/12/12 06:46:13;;;;;;;;;13.25;12.00;;;;;;;;5091743;27;45704;-73
2021/12/12 06:48:40;;;;;;;;;11.75;11.25;;;;;;;;5094138;27;47340;-74
2021/12/12 06:51:05;;;;;;;;;12.00;12.00;;;;;;;;5110056;27;45392;-74
2021/12/12 06:53:32;;;;;;;;;15.75;11.75;;;;;;;;5108257;27;45392;-74
2021/12/12 06:55:58;;;;;;;;;11.00;11.00;;;;;;;;5090399;27;45576;-74
2021/12/12 06:58:25;;;;;;;;;18.00;12.75;;;;;;;;5091833;27;48470;-73
2021/12/12 07:00:53;;;;;;;;;13.00;12.75;;;;;;;;5095244;27;45566;-73
2021/12/12 07:03:19;;;;;;;;;13.25;12.25;;;;;;;;5098960;27;45362;-74
2021/12/12 07:05:45;;;;;;;;;11.25;11.25;;;;;;;;5107401;27;45502;-73
2021/12/12 07:08:11;;;;;;;;;6.50;6.00;;;;;;;;5109334;27;46435;-73
2021/12/12 07:10:36;;;;;;;;;10.50;10.50;;;;;;;;5109402;27;45369;-73
2021/12/12 07:13:02;;;;;;;;;10.75;10.75;;;;;;;;5112912;27;45434;-74
2021/12/12 07:15:32;;;;;;;;;10.00;8.75;;;;;;;;5100257;27;45490;-74
2021/12/12 07:17:59;;;;;;;;;12.50;12.50;;;;;;;;5114771;27;46022;-74
2021/12/12 07:20:25;;;;;;;;;8.25;8.25;;;;;;;;5110876;27;47111;-73
2021/12/12 07:22:50;;;;;;;;;11.00;8.25;;;;;;;;5093178;27;45559;-73
2021/12/12 07:25:16;;;;;;;;;11.25;11.00;;;;;;;;5095476;27;45543;-73
2021/12/12 07:27:41;;;;;;;;;8.50;8.50;;;;;;;;5116980;27;45275;-73
2021/12/12 07:30:07;;;;;;;;;9.50;8.25;;;;;;;;5095807;27;46209;-72
2021/12/12 07:32:35;;;;;;;;;10.50;9.75;;;;;;;;5112671;27;45321;-74
2021/12/12 07:35:00;;;;;;;;;13.75;13.25;;;;;;;;5113186;27;45315;-73
2021/12/12 07:37:28;;;;;;;;;15.75;12.50;;;;;;;;5115159;27;45574;-74
2021/12/12 07:39:54;;;;;;;;;12.75;9.75;;;;;;;;5081581;27;45365;-74
2021/12/12 07:42:19;;;;;;;;;14.75;11.75;;;;;;;;5115524;27;45496;-70
2021/12/12 07:44:45;;;;;;;;;13.75;11.50;;;;;;;;5102406;27;45442;-72
2021/12/12 07:47:12;;;;;;;;;15.75;15.75;;;;;;;;5084307;27;47684;-73
2021/12/12 07:49:39;;;;;;;;;22.50;18.75;;;;;;;;5103057;27;45415;-75
2021/12/12 07:52:06;;;;;;;;;21.00;18.25;;;;;;;;5100488;27;45483;-75
2021/12/12 07:54:32;;;;;;;;;14.00;11.50;;;;;;;;5113773;27;45389;-74
2021/12/12 07:56:57;;;;;;;;;15.50;11.25;;;;;;;;5095744;27;47352;-74
2021/12/12 07:59:23;;;;;;;;;11.50;11.50;;;;;;;;5112430;27;45413;-74
2021/12/12 08:01:49;;;;;;;;;10.00;9.50;;;;;;;;5112787;27;45418;-73
2021/12/12 08:04:15;;;;;;;;;13.75;13.75;;;;;;;;5095043;27;45353;-72
2021/12/12 08:06:41;;;;;;;;;13.00;13.00;;;;;;;;5114232;27;46638;-72
2021/12/12 08:09:07;;;;;;;;;10.75;10.75;;;;;;;;5094977;27;45358;-73
2021/12/12 08:11:33;;;;;;;;;13.50;12.00;;;;;;;;5092587;27;45454;-73
2021/12/12 08:13:59;;;;;;;;;14.00;12.25;;;;;;;;5112252;27;45397;-74
2021/12/12 08:16:25;;;;;;;;;11.50;11.25;;;;;;;;5092776;27;47686;-74
2021/12/12 08:18:51;;;;;;;;;8.50;7.50;;;;;;;;5116897;27;45405;-74
2021/12/12 08:21:18;;;;;;;;;10.00;9.75;;;;;;;;5114598;27;45778;-73
2021/12/12 08:23:44;;;;;;;;;12.75;11.00;;;;;;;;5092727;27;45630;-73
2021/12/12 08:26:10;;;;;;;;;32.75;21.00;;;;;;;;5105812;27;45756;-74
2021/12/12 08:28:36;;;;;;;;;26.25;22.75;;;;;;;;5084855;27;45577;-74
2021/12/12 08:31:01;;;;;;;;;27.50;25.00;;;;;;;;5108084;27;45500;-74
2021/12/12 08:33:27;;;;;;;;;14.75;13.25;;;;;;;;5082264;27;45385;-73
2021/12/12 08:35:52;;;;;;;;;12.50;12.50;;;;;;;;5102634;27;46500;-73
2021/12/12 08:38:18;;;;;;;;;6.25;6.25;;;;;;;;5103155;27;45349;-74
2021/12/12 08:40:47;;;;;;;;;9.00;9.00;;;;;;;;5103728;27;45465;-73
2021/12/12 08:43:14;;;;;;;;;10.00;10.00;;;;;;;;5096268;27;45266;-72
2021/12/12 08:45:41;;;;;;;;;8.75;8.75;;;;;;;;5098373;27;45714;-73
2021/12/12 08:48:07;;;;;;;;;9.25;7.50;;;;;;;;5101592;27;45317;-73
2021/12/12 08:50:33;;;;;;;;;10.25;10.25;;;;;;;;5084870;27;45490;-73
2021/12/12 08:53:00;;;;;;;;;7.75;7.00;;;;;;;;5102977;27;45428;-73
2021/12/12 08:55:31;;;;;;;;;10.75;10.75;;;;;;;;5102584;27;45953;-73
2021/12/12 08:58:03;;;;;;;;;8.50;7.50;;;;;;;;5101350;27;45781;-73
2021/12/12 09:00:33;;;;;;;;;8.50;8.50;;;;;;;;5094389;27;45273;-73
2021/12/12 09:02:59;;;;;;;;;14.00;9.50;;;;;;;;5103461;27;45746;-73
2021/12/12 09:05:30;;;;;;;;;11.25;10.50;;;;;;;;5102079;27;45543;-72
2021/12/12 09:07:59;;;;;;;;;5.50;5.00;;;;;;;;5102890;27;45388;-73
2021/12/12 09:10:27;;;;;;;;;5.75;5.75;;;;;;;;5103063;27;45375;-73
2021/12/12 09:13:06;;;;;;;;;6.50;6.00;;;;;;;;5098998;27;45228;-73
2021/12/12 09:15:34;;;;;;;;;9.75;6.75;;;;;;;;5100003;27;45711;-73
2021/12/12 09:18:03;;;;;;;;;6.00;6.00;;;;;;;;5101456;27;45441;-72
2021/12/12 09:20:34;;;;;;;;;7.00;7.00;;;;;;;;5100885;27;45352;-73
2021/12/12 09:23:06;;;;;;;;;8.00;8.00;;;;;;;;5083078;27;45384;-73
2021/12/12 09:25:42;;;;;;;;;5.00;4.33;;;;;;;;5102315;27;45903;-73
2021/12/12 09:28:15;;;;;;;;;8.75;6.50;;;;;;;;5079996;27;46247;-72
2021/12/12 09:30:41;;;;;;;;;8.50;8.50;;;;;;;;5079239;27;45571;-72
2021/12/12 09:33:18;;;;;;;;;8.00;8.00;;;;;;;;5101200;27;45496;-73
2021/12/12 09:35:47;;;;;;;;;3.00;2.00;;;;;;;;5082957;27;46690;-72
2021/12/12 09:38:15;;;;;;;;;9.75;9.75;;;;;;;;5090909;27;46125;-72
2021/12/12 09:40:43;;;;;;;;;8.50;7.25;;;;;;;;5092208;27;45410;-73
2021/12/12 09:43:14;;;;;;;;;12.00;9.50;;;;;;;;5104348;27;45448;-73
2021/12/12 09:45:58;;;;;;;;;7.00;7.00;;;;;;;;5097953;27;45773;-72
2021/12/12 09:51:58;;;;;;;;;6.75;6.75;;;;;;;;5012183;28;45664;-73
2021/12/12 09:54:35;;;;;;;;;7.00;7.00;;;;;;;;5012668;28;46603;-72
2021/12/12 09:57:03;;;;;;;;;8.00;8.00;;;;;;;;5011667;28;46341;-72
2021/12/12 09:59:40;;;;;;;;;10.00;7.75;;;;;;;;4993287;28;45546;-73
2021/12/12 10:02:08;;;;;;;;;7.00;7.00;;;;;;;;5003433;28;45371;-72
2021/12/12 10:04:46;;;;;;;;;12.00;9.25;;;;;;;;4995903;28;45927;-72
2021/12/12 10:07:14;;;;;;;;;8.25;8.00;;;;;;;;4995236;28;48705;-72
2021/12/12 10:09:46;;;;;;;;;7.25;7.00;;;;;;;;5008840;28;45472;-73
2021/12/12 10:12:13;;;;;;;;;8.00;8.00;;;;;;;;4997106;28;45537;-72
2021/12/12 10:15:04;;;;;;;;;8.25;8.25;;;;;;;;5014268;28;45588;-72
2021/12/12 10:17:41;;;;;;;;;5.25;5.25;;;;;;;;4996649;28;47510;-72
2021/12/12 10:20:09;;;;;;;;;12.75;9.25;;;;;;;;5013220;28;45473;-72
2021/12/12 10:22:45;;;;;;;;;8.75;8.00;;;;;;;;4995900;28;45517;-71
2021/12/12 10:25:15;;;;;;;;;5.00;5.00;;;;;;;;4996150;28;45550;-71
2021/12/12 10:27:40;;;;;;;;;7.00;7.00;;;;;;;;5082725;27;46212;-72
2021/12/12 10:30:21;;;;;;;;;7.00;7.00;;;;;;;;5101202;27;45461;-71
2021/12/12 10:32:49;;;;;;;;;9.25;7.75;;;;;;;;5100817;27;45507;-73
2021/12/12 10:35:27;;;;;;;;;8.00;8.00;;;;;;;;5083275;27;45302;-71
2021/12/12 10:37:58;;;;;;;;;9.00;8.25;;;;;;;;5084833;27;47493;-71
2021/12/12 10:40:27;;;;;;;;;9.00;9.00;;;;;;;;5086771;27;45287;-71
2021/12/12 10:42:54;;;;;;;;;9.25;9.00;;;;;;;;5106165;27;45492;-71
2021/12/12 10:45:32;;;;;;;;;11.00;9.50;;;;;;;;5082077;27;45403;-71
2021/12/12 10:48:00;;;;;;;;;9.50;9.00;;;;;;;;5090478;27;47642;-73
2021/12/12 10:50:31;;;;;;;;;9.25;9.00;;;;;;;;5094639;27;46203;-73
2021/12/12 10:53:00;;;;;;;;;8.00;7.75;;;;;;;;5091169;27;45544;-72
2021/12/12 10:55:32;;;;;;;;;6.00;6.00;;;;;;;;5100301;27;45417;-73
2021/12/12 10:58:02;;;;;;;;;8.00;7.00;;;;;;;;5110329;27;46499;-73
2021/12/12 11:00:29;;;;;;;;;9.00;9.00;;;;;;;;5113821;27;45320;-73
2021/12/12 11:03:03;;;;;;;;;10.25;10.00;;;;;;;;5110533;27;45342;-73
2021/12/12 11:05:40;;;;;;;;;8.50;8.50;;;;;;;;5090248;27;45543;-72
2021/12/12 11:08:25;;;;;;;;;8.50;8.50;;;;;;;;5116186;27;46211;-72
2021/12/12 11:10:51;;;;;;;;;6.50;6.50;;;;;;;;5096439;27;45503;-72
2021/12/12 11:13:20;;;;;;;;;8.75;8.75;;;;;;;;5109618;27;45499;-72
2021/12/12 11:16:08;;;;;;;;;8.00;8.00;;;;;;;;5101484;27;45689;-74
2021/12/12 11:18:44;;;;;;;;;11.75;9.75;;;;;;;;5097629;27;48047;-73
2021/12/12 11:21:15;;;;;;;;;9.25;9.25;;;;;;;;5112181;27;45479;-74
2021/12/12 11:23:50;;;;;;;;;5.00;5.00;;;;;;;;5106400;27;45399;-73
2021/12/12 11:26:34;;;;;;;;;8.25;8.25;;;;;;;;5094799;27;45607;-73
2021/12/12 11:29:00;;;;;;;;;9.00;8.00;;;;;;;;5088795;27;47674;-74
2021/12/12 11:31:32;;;;;;;;;8.75;7.75;;;;;;;;5089852;27;45381;-74
2021/12/12 11:33:57;;;;;;;;;8.50;8.50;;;;;;;;5107217;27;45586;-74
2021/12/12 11:36:26;;;;;;;;;16.00;10.25;;;;;;;;5112306;27;45524;-74
2021/12/12 11:39:00;;;;;;;;;3.75;3.75;;;;;;;;5108252;27;45747;-74
2021/12/12 11:41:29;;;;;;;;;11.50;9.75;;;;;;;;5095957;27;45721;-73
2021/12/12 11:44:01;;;;;;;;;9.00;7.25;;;;;;;;5095281;27;45556;-73
2021/12/12 11:46:29;;;;;;;;;10.25;9.75;;;;;;;;5104213;27;45877;-74
2021/12/12 11:48:59;;;;;;;;;22.00;17.75;;;;;;;;5106970;27;45421;-74
2021/12/12 11:51:30;;;;;;;;;15.75;13.00;;;;;;;;5103416;27;45400;-74
2021/12/12 11:54:01;;;;;;;;;6.75;6.75;;;;;;;;5098336;27;45388;-72
2021/12/12 11:56:45;;;;;;;;;24.25;21.00;;;;;;;;5096379;27;45502;-71
2021/12/12 11:59:19;;;;;;;;;15.00;13.00;;;;;;;;5107490;27;45809;-72
2021/12/12 12:01:47;;;;;;;;;10.75;10.50;;;;;;;;5102723;27;45341;-71
2021/12/12 12:04:12;;;;;;;;;8.00;7.50;;;;;;;;5101271;27;45476;-73
2021/12/12 12:06:37;;;;;;;;;26.00;23.00;;;;;;;;5114570;27;45580;-73
2021/12/12 12:09:06;;;;;;;;;24.25;24.25;;;;;;;;5108450;27;45673;-74
2021/12/12 12:11:50;;;;;;;;;16.25;13.75;;;;;;;;5104178;27;45463;-73
2021/12/12 12:14:32;;;;;;;;;14.00;13.25;;;;;;;;5119767;27;45353;-76
2021/12/12 12:17:07;;;;;;;;;9.00;9.00;;;;;;;;5109479;27;45453;-75
2021/12/12 12:19:50;;;;;;;;;7.00;7.00;;;;;;;;5094147;27;48474;-73
2021/12/12 12:22:31;;;;;;;;;15.25;14.25;;;;;;;;5106988;27;45152;-74
2021/12/12 12:25:13;;;;;;;;;13.50;11.25;;;;;;;;5080499;27;45681;-76
2021/12/12 12:27:40;;;;;;;;;8.00;8.00;;;;;;;;5099371;27;45452;-73
2021/12/12 12:30:24;;;;;;;;;11.75;11.75;;;;;;;;5111438;27;45377;-75
2021/12/12 12:32:58;;;;;;;;;10.00;10.00;;;;;;;;5084690;27;45499;-73
2021/12/12 12:35:42;;;;;;;;;8.75;7.75;;;;;;;;5102375;27;45468;-73
2021/12/12 12:38:26;;;;;;;;;7.75;7.25;;;;;;;;5089482;27;45440;-74
2021/12/12 12:41:10;;;;;;;;;7.67;6.00;;;;;;;;5101972;27;45970;-74
2021/12/12 12:43:54;;;;;;;;;9.50;9.50;;;;;;;;5103888;27;45526;-73
2021/12/12 12:46:37;;;;;;;;;9.50;8.25;;;;;;;;5085814;27;45279;-73
2021/12/12 12:49:21;;;;;;;;;7.75;7.75;;;;;;;;5093440;27;45665;-73
2021/12/12 12:51:46;;;;;;;;;9.50;8.50;;;;;;;;5107638;27;46186;-74
2021/12/12 12:54:12;;;;;;;;;9.75;8.00;;;;;;;;5086246;27;45622;-73
2021/12/12 12:56:56;;;;;;;;;6.50;5.50;;;;;;;;5085613;27;45521;-74
2021/12/12 12:59:39;;;;;;;;;8.00;7.00;;;;;;;;5103776;27;45478;-74
2021/12/12 13:02:04;;;;;;;;;6.00;6.00;;;;;;;;5103919;27;46376;-73
2021/12/12 13:04:39;;;;;;;;;8.50;8.50;;;;;;;;5107713;27;45445;-74
2021/12/12 13:07:14;;;;;;;;;9.75;9.75;;;;;;;;5107912;27;45641;-73
2021/12/12 13:09:51;;;;;;;;;12.00;10.50;;;;;;;;5086007;27;45535;-74
2021/12/12 13:12:35;;;;;;;;;10.25;10.25;;;;;;;;5111170;27;47746;-72
2021/12/12 13:15:04;;;;;;;;;10.00;9.25;;;;;;;;5088821;27;45433;-73
2021/12/12 13:17:41;;;;;;;;;7.00;7.00;;;;;;;;5107818;27;45396;-74
2021/12/12 13:20:13;;;;;;;;;7.00;7.00;;;;;;;;5102963;27;45470;-73
2021/12/12 13:22:50;;;;;;;;;7.00;6.00;;;;;;;;5110745;27;46193;-73
2021/12/12 13:25:35;;;;;;;;;7.25;7.25;;;;;;;;5093813;27;45753;-72
2021/12/12 13:28:17;;;;;;;;;7.25;6.75;;;;;;;;5096278;27;45290;-73
2021/12/12 13:30:43;;;;;;;;;7.67;7.00;;;;;;;;5082014;27;45549;-75
2021/12/12 13:33:21;;;;;;;;;7.00;6.25;;;;;;;;5085124;27;47437;-71
2021/12/12 13:36:05;;;;;;;;;5.50;5.50;;;;;;;;5084896;27;45369;-76
2021/12/12 13:38:45;;;;;;;;;7.00;6.00;;;;;;;;5101015;27;45316;-73
2021/12/12 13:41:32;;;;;;;;;8.00;7.00;;;;;;;;5099708;27;45541;-72
2021/12/12 13:44:06;;;;;;;;;4.00;4.00;;;;;;;;5084059;27;49280;-72
2021/12/12 13:46:50;;;;;;;;;9.00;8.00;;;;;;;;5107264;27;45882;-71
2021/12/12 13:49:21;;;;;;;;;4.25;4.25;;;;;;;;5107209;27;45392;-72
2021/12/12 13:51:50;;;;;;;;;7.75;6.00;;;;;;;;5103755;27;45603;-72
2021/12/12 13:54:21;;;;;;;;;7.25;7.25;;;;;;;;5076120;27;47508;-71
2021/12/12 13:56:52;;;;;;;;;11.00;11.00;;;;;;;;5108617;27;45459;-72
2021/12/12 13:59:28;;;;;;;;;7.75;7.75;;;;;;;;5091739;27;45549;-72
2021/12/12 14:02:02;;;;;;;;;9.75;8.00;;;;;;;;5102649;27;45596;-70
2021/12/12 14:04:36;;;;;;;;;7.25;7.25;;;;;;;;5097039;27;45611;-69
2021/12/12 14:07:04;;;;;;;;;9.00;6.25;;;;;;;;5088495;27;45440;-70
2021/12/12 14:09:30;;;;;;;;;7.00;6.25;;;;;;;;5097750;27;45792;-71
2021/12/12 14:11:59;;;;;;;;;9.00;8.00;;;;;;;;5082507;27;46428;-71
2021/12/12 14:14:35;;;;;;;;;7.25;7.25;;;;;;;;5101206;27;46477;-69
2021/12/12 14:17:03;;;;;;;;;12.50;11.00;;;;;;;;5082440;27;45498;-69
2021/12/12 14:19:33;;;;;;;;;8.50;6.50;;;;;;;;5102911;27;45692;-70
2021/12/12 14:21:58;;;;;;;;;9.25;9.25;;;;;;;;5066946;27;45428;-72
2021/12/12 14:24:25;;;;;;;;;7.75;7.00;;;;;;;;5076249;27;48530;-71
2021/12/12 14:26:51;;;;;;;;;6.00;6.00;;;;;;;;5102114;27;45763;-71
2021/12/12 14:29:23;;;;;;;;;8.00;6.50;;;;;;;;5101275;27;45356;-71
2021/12/12 14:31:59;;;;;;;;;6.75;6.75;;;;;;;;5097633;27;45523;-72
2021/12/12 14:34:33;;;;;;;;;5.75;5.75;;;;;;;;5094651;27;48537;-70
2021/12/12 14:37:02;;;;;;;;;3.00;3.00;;;;;;;;5085543;27;45716;-72
2021/12/12 14:39:31;;;;;;;;;10.25;9.00;;;;;;;;5109792;27;45450;-72
2021/12/12 14:41:59;;;;;;;;;7.50;7.50;;;;;;;;5100823;27;45408;-72
2021/12/12 14:44:29;;;;;;;;;9.00;9.00;;;;;;;;5084695;27;48066;-71
2021/12/12 14:46:56;;;;;;;;;8.75;8.75;;;;;;;;5090339;27;46212;-68
2021/12/12 14:49:41;;;;;;;;;11.75;9.00;;;;;;;;5104153;27;45541;-69
2021/12/12 14:52:16;;;;;;;;;8.25;8.25;;;;;;;;5081760;27;45448;-70
2021/12/12 14:54:44;;;;;;;;;7.75;7.25;;;;;;;;5086501;27;48426;-73
2021/12/12 14:57:12;;;;;;;;;8.75;8.75;;;;;;;;5111056;27;44768;-67
2021/12/12 14:59:39;;;;;;;;;11.00;10.25;;;;;;;;5087540;27;45346;-65
2021/12/12 15:02:10;;;;;;;;;10.50;10.50;;;;;;;;5091957;27;45373;-64
2021/12/12 15:04:39;;;;;;;;;8.75;8.00;;;;;;;;5108450;27;45776;-65
2021/12/12 15:07:09;;;;;;;;;9.25;8.75;;;;;;;;5105696;27;45412;-66
2021/12/12 15:09:34;;;;;;;;;6.75;6.75;;;;;;;;5106884;27;45521;-65
2021/12/12 15:12:03;;;;;;;;;10.50;10.50;;;;;;;;5112358;27;45534;-67